createdAt,value
2023-04-18T00:00:57.256Z,20.85
2023-04-18T00:03:24.885Z,18.90
2023-04-18T00:05:52.419Z,20.85
2023-04-18T00:08:19.708Z,21.30
2023-04-18T00:10:46.893Z,19.63
2023-04-18T00:13:14.256Z,18.98
2023-04-18T00:15:42.900Z,19.02
2023-04-18T00:18:10.547Z,18.60
2023-04-18T00:20:38.975Z,18.77
2023-04-18T00:23:06.310Z,18.10
2023-04-18T00:25:33.549Z,17.88
2023-04-18T00:28:00.848Z,17.52
2023-04-18T00:30:28.229Z,17.73
2023-04-18T00:32:56.822Z,18.40
2023-04-18T00:35:25.201Z,16.17
2023-04-18T00:37:52.509Z,16.30
2023-04-18T00:40:19.789Z,16.67
2023-04-18T00:42:47.272Z,15.88
2023-04-18T00:45:14.767Z,17.08
2023-04-18T00:47:42.132Z,15.80
2023-04-18T00:50:10.632Z,15.80
2023-04-18T00:52:37.970Z,15.90
2023-04-18T00:55:07.110Z,13.55
2023-04-18T00:57:34.548Z,14.73
2023-04-18T01:00:08.654Z,13.90
2023-04-18T01:02:36.175Z,13.63
2023-04-18T01:05:04.546Z,12.52
2023-04-18T01:07:33.445Z,12.88
2023-04-18T01:10:01.058Z,12.25
2023-04-18T01:12:28.373Z,12.35
2023-04-18T01:14:55.584Z,12.10
2023-04-18T01:17:23.354Z,11.77
2023-04-18T01:19:51.947Z,12.65
2023-04-18T01:22:20.427Z,11.95
2023-04-18T01:24:47.671Z,10.47
2023-04-18T01:27:17.500Z,12.07
2023-04-18T01:29:44.748Z,10.85
2023-04-18T01:32:12.111Z,10.57
2023-04-18T01:34:39.429Z,10.40
2023-04-18T01:37:06.673Z,10.18
2023-04-18T01:39:33.947Z,9.77
2023-04-18T01:42:01.963Z,9.93
2023-04-18T01:44:29.249Z,10.77
2023-04-18T01:46:56.500Z,9.80
2023-04-18T01:49:25.170Z,10.45
2023-04-18T01:51:52.495Z,9.73
2023-04-18T01:54:22.001Z,11.30
2023-04-18T01:56:49.218Z,9.57
2023-04-18T01:59:17.039Z,10.65
2023-04-18T02:01:45.075Z,10.48
2023-04-18T02:04:12.585Z,10.18
2023-04-18T02:06:39.996Z,10.52
2023-04-18T02:09:07.212Z,10.50
2023-04-18T02:11:34.457Z,10.70
2023-04-18T02:14:03.488Z,11.05
2023-04-18T02:16:30.843Z,11.73
2023-04-18T02:18:58.152Z,10.07
2023-04-18T02:21:25.481Z,11.15
2023-04-18T02:23:52.776Z,11.73
2023-04-18T02:26:22.348Z,11.20
2023-04-18T02:28:49.578Z,11.27
2023-04-18T02:31:17.252Z,12.35
2023-04-18T02:33:45.387Z,12.52
2023-04-18T02:36:13.031Z,10.48
2023-04-18T02:38:40.396Z,11.65
2023-04-18T02:41:07.928Z,11.68
2023-04-18T02:43:35.124Z,10.70
2023-04-18T02:46:03.642Z,11.33
2023-04-18T02:48:30.998Z,11.50
2023-04-18T02:51:08.524Z,11.50
2023-04-18T02:53:38.004Z,11.43
2023-04-18T02:56:06.031Z,12.25
2023-04-18T02:58:58.914Z,11.15
2023-04-18T03:01:52.049Z,11.20
2023-04-18T03:04:21.929Z,11.35
2023-04-18T03:06:57.881Z,11.55
2023-04-18T03:09:25.845Z,11.98
2023-04-18T03:11:58.482Z,12.30
2023-04-18T03:14:28.182Z,11.82
2023-04-18T03:16:56.481Z,12.45
2023-04-18T03:19:28.558Z,11.45
2023-04-18T03:21:58.660Z,11.40
2023-04-18T03:24:25.967Z,11.88
2023-04-18T03:26:59.710Z,11.75
2023-04-18T03:29:27.527Z,15.02
2023-04-18T03:31:54.746Z,11.38
2023-04-18T03:34:22.064Z,12.30
2023-04-18T03:36:49.817Z,13.77
2023-04-18T03:39:17.674Z,12.07
2023-04-18T03:41:45.038Z,12.07
2023-04-18T03:44:12.735Z,12.25
2023-04-18T03:46:42.073Z,14.10
2023-04-18T03:49:10.623Z,12.25
2023-04-18T03:51:47.573Z,11.90
2023-04-18T03:54:15.542Z,12.23
2023-04-18T03:56:43.209Z,11.73
2023-04-18T03:59:10.913Z,11.85
2023-04-18T04:01:41.171Z,11.50
2023-04-18T04:04:09.329Z,11.68
2023-04-18T04:06:36.851Z,12.00
2023-04-18T04:09:04.292Z,12.13
2023-04-18T04:11:31.636Z,12.98
2023-04-18T04:13:58.891Z,11.50
2023-04-18T04:16:32.576Z,12.13
2023-04-18T04:19:00.686Z,12.95
2023-04-18T04:21:35.815Z,12.10
2023-04-18T04:24:03.524Z,12.83
2023-04-18T04:26:36.290Z,12.88
2023-04-18T04:29:13.808Z,12.68
2023-04-18T04:31:42.829Z,13.15
2023-04-18T04:34:10.114Z,12.43
2023-04-18T04:36:38.255Z,13.77
2023-04-18T04:39:08.683Z,12.60
2023-04-18T04:41:53.449Z,13.10
2023-04-18T04:44:25.835Z,15.13
2023-04-18T04:46:54.576Z,12.93
2023-04-18T04:49:25.930Z,15.15
2023-04-18T04:51:53.171Z,13.70
2023-04-18T04:54:20.891Z,15.15
2023-04-18T04:56:48.443Z,13.13
2023-04-18T04:59:16.383Z,14.63
2023-04-18T05:01:46.728Z,13.88
2023-04-18T05:04:15.691Z,13.88
2023-04-18T05:06:43.149Z,13.32
2023-04-18T05:09:10.442Z,13.70
2023-04-18T05:11:37.668Z,13.98
2023-04-18T05:14:04.917Z,13.60
2023-04-18T05:16:32.257Z,13.13
2023-04-18T05:18:59.721Z,13.55
2023-04-18T05:21:28.694Z,13.75
2023-04-18T05:23:56.331Z,14.70
2023-04-18T05:26:24.358Z,12.68
2023-04-18T05:28:51.649Z,13.05
2023-04-18T05:31:18.992Z,13.95
2023-04-18T05:33:46.263Z,14.25
2023-04-18T05:36:13.538Z,13.57
2023-04-18T05:38:40.782Z,13.70
2023-04-18T05:41:08.040Z,13.68
2023-04-18T05:43:35.302Z,13.73
2023-04-18T05:46:02.564Z,13.10
2023-04-18T05:48:29.805Z,13.07
2023-04-18T05:50:57.836Z,14.07
2023-04-18T05:53:25.204Z,14.05
2023-04-18T05:55:52.515Z,13.73
2023-04-18T05:58:19.819Z,12.88
2023-04-18T06:00:48.242Z,14.98
2023-04-18T06:03:15.896Z,13.07
2023-04-18T06:05:43.731Z,13.15
2023-04-18T06:08:11.102Z,13.13
2023-04-18T06:10:39.259Z,13.48
2023-04-18T06:13:06.657Z,14.05
2023-04-18T06:15:35.365Z,11.95
2023-04-18T06:18:02.775Z,13.98
2023-04-18T06:20:30.197Z,13.10
2023-04-18T06:22:57.597Z,13.82
2023-04-18T06:25:25.892Z,13.13
2023-04-18T06:27:53.178Z,12.63
2023-04-18T06:30:22.013Z,13.05
2023-04-18T06:32:49.586Z,13.23
2023-04-18T06:35:17.090Z,14.23
2023-04-18T06:37:44.933Z,13.30
2023-04-18T06:40:12.617Z,13.73
2023-04-18T06:42:39.956Z,12.70
2023-04-18T06:45:07.617Z,14.32
2023-04-18T06:47:34.888Z,12.55
2023-04-18T06:50:02.206Z,13.32
2023-04-18T06:52:29.567Z,13.50
2023-04-18T06:54:56.770Z,12.50
2023-04-18T06:57:24.065Z,13.43
2023-04-18T06:59:51.309Z,11.60
2023-04-18T07:02:18.738Z,13.00
2023-04-18T07:04:46.186Z,12.40
2023-04-18T07:07:13.454Z,14.80
2023-04-18T07:09:40.814Z,13.85
2023-04-18T07:12:08.166Z,13.48
2023-04-18T07:14:35.515Z,12.43
2023-04-18T07:17:02.961Z,14.05
2023-04-18T07:19:30.334Z,12.73
2023-04-18T07:21:57.726Z,11.85
2023-04-18T07:24:25.102Z,11.90
2023-04-18T07:26:54.799Z,12.93
2023-04-18T07:29:22.391Z,11.40
2023-04-18T07:31:49.829Z,12.68
2023-04-18T07:34:17.853Z,13.13
2023-04-18T07:36:45.256Z,13.77
2023-04-18T07:39:12.441Z,11.02
2023-04-18T07:41:39.697Z,10.95
2023-04-18T07:44:07.370Z,10.45
2023-04-18T07:46:34.864Z,11.20
2023-04-18T07:49:04.967Z,10.40
2023-04-18T07:51:32.371Z,10.43
2023-04-18T07:53:59.885Z,10.35
2023-04-18T07:56:27.588Z,10.75
2023-04-18T07:58:54.806Z,10.70
2023-04-18T08:01:24.302Z,10.85
2023-04-18T08:03:53.214Z,10.60
2023-04-18T08:06:21.404Z,11.60
2023-04-18T08:08:48.769Z,10.20
2023-04-18T08:11:15.984Z,9.82
2023-04-18T08:13:43.367Z,10.88
2023-04-18T08:16:10.763Z,10.32
2023-04-18T08:18:38.019Z,9.43
2023-04-18T08:21:05.610Z,11.40
2023-04-18T08:23:32.895Z,10.70
2023-04-18T08:26:00.215Z,10.35
2023-04-18T08:28:27.449Z,11.35
2023-04-18T08:30:56.473Z,10.00
2023-04-18T08:33:24.307Z,11.98
2023-04-18T08:35:51.901Z,11.77
2023-04-18T08:38:19.380Z,11.00
2023-04-18T08:40:47.294Z,10.65
2023-04-18T08:43:15.649Z,10.40
2023-04-18T08:45:43.910Z,10.23
2023-04-18T08:48:17.709Z,10.67
2023-04-18T08:50:45.391Z,10.07
2023-04-18T08:53:12.757Z,10.55
2023-04-18T08:55:40.615Z,11.65
2023-04-18T08:58:08.053Z,9.38
2023-04-18T09:00:35.373Z,10.10
2023-04-18T09:03:04.043Z,10.88
2023-04-18T09:05:31.541Z,12.10
2023-04-18T09:07:58.884Z,10.32
2023-04-18T09:10:30.920Z,10.23
2023-04-18T09:12:59.052Z,10.05
2023-04-18T09:15:27.294Z,10.88
2023-04-18T09:17:56.358Z,10.60
2023-04-18T09:22:52.079Z,10.93
2023-04-18T09:25:39.873Z,10.30
2023-04-18T09:28:24.557Z,11.25
2023-04-18T09:30:52.784Z,10.48
2023-04-18T09:33:28.244Z,9.70
2023-04-18T09:35:56.124Z,11.07
2023-04-18T09:38:39.702Z,10.73
2023-04-18T09:41:10.667Z,12.32
2023-04-18T09:43:38.114Z,11.13
2023-04-18T09:46:05.709Z,11.73
2023-04-18T09:48:33.086Z,9.40
2023-04-18T09:51:02.098Z,10.65
2023-04-18T09:53:30.008Z,9.50
2023-04-18T09:55:58.317Z,9.73
2023-04-18T09:58:26.909Z,9.90
2023-04-18T10:00:54.944Z,9.85
2023-04-18T10:03:23.436Z,10.85
2023-04-18T10:05:51.221Z,11.50
2023-04-18T10:08:19.090Z,11.20
2023-04-18T10:10:47.114Z,10.00
2023-04-18T10:13:14.703Z,10.30
2023-04-18T10:15:44.094Z,9.77
2023-04-18T10:18:15.376Z,10.43
2023-04-18T10:20:44.437Z,10.98
2023-04-18T10:23:29.922Z,10.85
2023-04-18T10:25:57.877Z,9.20
2023-04-18T10:28:26.517Z,11.00
2023-04-18T10:30:56.275Z,10.10
2023-04-18T10:33:33.485Z,10.18
2023-04-18T10:36:01.074Z,10.93
2023-04-18T10:38:28.707Z,10.85
2023-04-18T10:41:14.987Z,12.07
2023-04-18T10:44:01.316Z,10.55
2023-04-18T10:46:32.278Z,8.90
2023-04-18T10:49:18.831Z,8.88
2023-04-18T10:51:46.478Z,9.77
2023-04-18T10:54:19.560Z,8.57
2023-04-18T10:56:54.166Z,10.20
2023-04-18T10:59:23.800Z,10.05
2023-04-18T11:01:55.404Z,9.40
2023-04-18T11:04:22.768Z,10.85
2023-04-18T11:06:51.086Z,9.57
2023-04-18T11:09:18.346Z,9.07
2023-04-18T11:11:45.722Z,9.25
2023-04-18T11:14:13.269Z,8.73
2023-04-18T11:16:41.094Z,8.65
2023-04-18T11:19:22.029Z,9.57
2023-04-18T11:21:49.560Z,8.57
2023-04-18T11:24:25.997Z,9.40
2023-04-18T11:26:56.447Z,8.93
2023-04-18T11:29:23.792Z,9.27
2023-04-18T11:31:52.839Z,9.82
2023-04-18T11:34:21.260Z,11.30
2023-04-18T11:36:51.757Z,10.13
2023-04-18T11:39:19.625Z,9.43
2023-04-18T11:41:50.534Z,10.23
2023-04-18T11:44:18.652Z,10.60
2023-04-18T11:46:46.068Z,10.32
2023-04-18T11:49:32.766Z,10.27
2023-04-18T11:52:01.336Z,12.65
2023-04-18T11:54:38.816Z,12.85
2023-04-18T11:57:06.645Z,11.18
2023-04-18T11:59:34.029Z,12.43
2023-04-18T12:02:14.929Z,11.35
2023-04-18T12:04:58.736Z,12.10
2023-04-18T12:07:32.922Z,9.45
2023-04-18T12:10:00.356Z,11.00
2023-04-18T12:12:27.572Z,11.60
2023-04-18T12:15:08.580Z,12.85
2023-04-18T12:17:37.659Z,12.68
2023-04-18T12:20:05.673Z,12.68
2023-04-18T12:22:49.630Z,12.25
2023-04-18T12:25:27.138Z,11.45
2023-04-18T12:28:05.017Z,12.85
2023-04-18T12:30:36.017Z,13.05
2023-04-18T12:33:05.164Z,12.02
2023-04-18T12:35:32.964Z,13.25
2023-04-18T12:38:01.839Z,12.25
2023-04-18T12:40:30.159Z,12.75
2023-04-18T12:42:57.454Z,13.10
2023-04-18T12:45:25.104Z,13.20
2023-04-18T12:47:53.777Z,11.93
2023-04-18T12:50:22.454Z,12.68
2023-04-18T12:52:49.798Z,13.00
2023-04-18T12:55:17.036Z,13.43
2023-04-18T12:57:44.529Z,14.90
2023-04-18T13:00:13.464Z,13.88
2023-04-18T13:05:09.941Z,13.52
2023-04-18T13:07:38.061Z,14.70
2023-04-18T13:10:05.687Z,13.60
2023-04-18T13:12:32.903Z,13.77
2023-04-18T13:15:00.256Z,13.13
2023-04-18T13:17:27.579Z,13.32
2023-04-18T13:19:54.859Z,14.77
2023-04-18T13:22:22.442Z,12.30
2023-04-18T13:24:51.779Z,15.10
2023-04-18T13:27:19.288Z,15.05
2023-04-18T13:29:46.773Z,16.15
2023-04-18T13:32:14.154Z,14.20
2023-04-18T13:34:46.046Z,16.33
2023-04-18T13:37:13.543Z,15.90
2023-04-18T13:39:40.971Z,14.43
2023-04-18T13:42:08.624Z,15.38
2023-04-18T13:44:36.717Z,16.63
2023-04-18T13:47:05.017Z,14.35
2023-04-18T13:49:32.961Z,15.27
2023-04-18T13:52:00.655Z,16.15
2023-04-18T13:54:28.427Z,15.00
2023-04-18T13:56:57.290Z,14.27
2023-04-18T13:59:27.558Z,16.02
2023-04-18T14:01:55.383Z,14.70
2023-04-18T14:04:23.056Z,14.50
2023-04-18T14:06:50.891Z,14.18
2023-04-18T14:09:18.190Z,14.23
2023-04-18T14:11:45.792Z,12.90
2023-04-18T14:14:13.024Z,14.32
2023-04-18T14:16:40.278Z,14.32
2023-04-18T14:19:07.704Z,13.65
2023-04-18T14:21:34.975Z,13.80
2023-04-18T14:24:02.300Z,13.57
2023-04-18T14:26:29.533Z,14.38
2023-04-18T14:28:57.035Z,12.77
2023-04-18T14:31:24.470Z,13.40
2023-04-18T14:33:52.186Z,12.48
2023-04-18T14:36:19.635Z,13.50
2023-04-18T14:38:50.175Z,13.80
2023-04-18T14:41:17.501Z,13.02
2023-04-18T14:43:44.767Z,14.02
2023-04-18T14:46:13.182Z,13.00
2023-04-18T14:48:40.513Z,14.98
2023-04-18T14:51:07.928Z,13.50
2023-04-18T14:53:35.266Z,12.55
2023-04-18T14:56:02.556Z,12.25
2023-04-18T14:58:29.898Z,13.32
2023-04-18T15:00:57.182Z,13.38
2023-04-18T15:03:24.520Z,13.45
2023-04-18T15:05:53.219Z,12.25
2023-04-18T15:08:20.714Z,14.48
2023-04-18T15:10:48.005Z,12.82
2023-04-18T15:13:15.764Z,12.35
2023-04-18T15:15:43.076Z,12.60
2023-04-18T15:18:11.136Z,12.95
2023-04-18T15:20:39.501Z,12.57
2023-04-18T15:23:07.039Z,14.17
2023-04-18T15:25:35.112Z,12.82
2023-04-18T15:28:02.366Z,13.00
2023-04-18T15:30:29.585Z,13.02
2023-04-18T15:32:57.217Z,12.73
2023-04-18T15:35:24.627Z,13.25
2023-04-18T15:37:53.734Z,13.50
2023-04-18T15:40:20.985Z,12.73
2023-04-18T15:42:49.575Z,12.95
2023-04-18T15:45:16.966Z,13.70
2023-04-18T15:47:44.332Z,13.20
2023-04-18T15:50:12.166Z,12.98
2023-04-18T15:52:41.494Z,12.50
2023-04-18T15:55:10.871Z,14.10
2023-04-18T15:57:38.099Z,12.45
2023-04-18T16:00:10.180Z,12.40
2023-04-18T16:02:37.530Z,13.50
2023-04-18T16:05:05.441Z,11.73
2023-04-18T16:07:32.772Z,11.23
2023-04-18T16:10:02.734Z,12.38
2023-04-18T16:12:30.245Z,11.43
2023-04-18T16:14:57.496Z,12.98
2023-04-18T16:17:24.782Z,12.20
2023-04-18T16:19:52.205Z,12.45
2023-04-18T16:22:19.487Z,12.10
2023-04-18T16:24:46.676Z,11.10
2023-04-18T16:27:13.988Z,13.20
2023-04-18T16:29:41.289Z,12.82
2023-04-18T16:32:08.771Z,12.60
2023-04-18T16:34:36.050Z,12.18
2023-04-18T16:37:03.390Z,12.65
2023-04-18T16:39:31.163Z,12.82
2023-04-18T16:41:58.483Z,12.68
2023-04-18T16:44:26.056Z,11.82
2023-04-18T16:46:53.410Z,12.00
2023-04-18T16:49:20.791Z,11.85
2023-04-18T16:51:48.989Z,11.85
2023-04-18T16:54:16.477Z,11.35
2023-04-18T16:56:44.980Z,11.80
2023-04-18T16:59:12.368Z,11.23
2023-04-18T17:01:39.627Z,12.35
2023-04-18T17:04:07.093Z,12.00
2023-04-18T17:06:34.570Z,10.90
2023-04-18T17:09:02.089Z,12.30
2023-04-18T17:11:30.096Z,12.15
2023-04-18T17:13:57.349Z,12.65
2023-04-18T17:16:24.682Z,11.23
2023-04-18T17:18:51.937Z,10.68
2023-04-18T17:21:19.150Z,13.25
2023-04-18T17:23:47.646Z,15.70
2023-04-18T17:26:14.883Z,16.90
2023-04-18T17:28:42.320Z,10.48
2023-04-18T17:31:09.629Z,10.52
2023-04-18T17:33:37.125Z,11.48
2023-04-18T17:36:06.356Z,20.48
2023-04-18T17:38:33.791Z,12.05
2023-04-18T17:41:01.963Z,12.35
2023-04-18T17:43:29.533Z,12.73
2023-04-18T17:45:57.120Z,13.23
2023-04-18T17:48:24.451Z,12.27
2023-04-18T17:50:51.686Z,11.38
2023-04-18T17:53:19.123Z,11.10
2023-04-18T17:55:48.877Z,11.63
2023-04-18T17:58:16.950Z,11.77
2023-04-18T18:00:44.261Z,11.50
2023-04-18T18:03:14.041Z,11.55
2023-04-18T18:05:42.081Z,11.85
2023-04-18T18:08:09.426Z,12.57
2023-04-18T18:10:36.673Z,11.80
2023-04-18T18:13:03.976Z,11.10
2023-04-18T18:15:31.603Z,11.88
2023-04-18T18:17:59.056Z,10.45
2023-04-18T18:20:27.391Z,10.90
2023-04-18T18:22:55.096Z,10.87
2023-04-18T18:25:22.515Z,10.98
2023-04-18T18:27:51.336Z,12.43
2023-04-18T18:30:19.155Z,12.13
2023-04-18T18:32:46.592Z,10.82
2023-04-18T18:35:13.951Z,12.52
2023-04-18T18:37:41.538Z,10.93
2023-04-18T18:40:09.356Z,10.38
2023-04-18T18:42:36.992Z,12.43
2023-04-18T18:45:04.566Z,11.63
2023-04-18T18:47:32.026Z,11.38
2023-04-18T18:49:59.314Z,12.40
2023-04-18T18:52:31.011Z,12.88
2023-04-18T18:54:58.451Z,11.65
2023-04-18T18:57:26.106Z,12.23
2023-04-18T18:59:55.705Z,12.32
2023-04-18T19:02:23.468Z,11.23
2023-04-18T19:04:50.954Z,12.63
2023-04-18T19:07:18.372Z,13.15
2023-04-18T19:09:46.449Z,12.40
2023-04-18T19:12:13.753Z,12.55
2023-04-18T19:14:42.375Z,13.25
2023-04-18T19:17:09.842Z,12.48
2023-04-18T19:19:37.096Z,11.70
2023-04-18T19:22:06.005Z,12.15
2023-04-18T19:24:34.842Z,12.32
2023-04-18T19:27:02.965Z,13.18
2023-04-18T19:29:32.557Z,11.32
2023-04-18T19:32:00.229Z,13.00
2023-04-18T19:34:27.477Z,15.20
2023-04-18T19:36:54.685Z,12.45
2023-04-18T19:39:22.084Z,12.25
2023-04-18T19:41:49.365Z,13.68
2023-04-18T19:44:16.816Z,13.93
2023-04-18T19:46:44.123Z,13.73
2023-04-18T19:49:11.473Z,13.70
2023-04-18T19:51:40.023Z,13.65
2023-04-18T19:54:07.471Z,16.55
2023-04-18T19:56:34.713Z,14.77
2023-04-18T19:59:02.412Z,15.43
2023-04-18T20:01:29.887Z,14.35
2023-04-18T20:04:00.049Z,14.65
2023-04-18T20:06:27.697Z,14.85
2023-04-18T20:08:55.057Z,15.80
2023-04-18T20:11:22.544Z,14.40
2023-04-18T20:13:52.097Z,14.88
2023-04-18T20:16:19.356Z,14.40
2023-04-18T20:18:47.523Z,16.10
2023-04-18T20:21:14.888Z,16.02
2023-04-18T20:23:42.820Z,13.80
2023-04-18T20:26:10.240Z,15.35
2023-04-18T20:28:37.907Z,15.07
2023-04-18T20:31:05.419Z,15.25
2023-04-18T20:33:33.072Z,14.90
2023-04-18T20:36:00.373Z,15.43
2023-04-18T20:38:29.689Z,15.27
2023-04-18T20:41:00.827Z,15.75
2023-04-18T20:43:28.155Z,14.63
2023-04-18T20:45:57.782Z,15.52
2023-04-18T20:48:25.495Z,14.48
2023-04-18T20:50:52.938Z,14.68
2023-04-18T20:53:21.278Z,14.02
2023-04-18T20:55:49.017Z,13.23
2023-04-18T20:58:16.791Z,14.35
2023-04-18T21:00:48.308Z,14.10
2023-04-18T21:03:16.249Z,13.75
2023-04-18T21:05:43.945Z,14.30
2023-04-18T21:08:11.511Z,14.63
2023-04-18T21:10:38.867Z,13.82
2023-04-18T21:13:06.206Z,15.05
2023-04-18T21:15:33.465Z,13.35
2023-04-18T21:18:00.772Z,13.00
2023-04-18T21:20:28.084Z,13.20
2023-04-18T21:22:55.363Z,12.23
2023-04-18T21:25:22.614Z,14.68
2023-04-18T21:27:50.841Z,12.73
2023-04-18T21:30:18.316Z,12.88
2023-04-18T21:32:47.156Z,12.43
2023-04-18T21:35:16.058Z,11.48
2023-04-18T21:37:44.495Z,12.75
2023-04-18T21:40:11.953Z,12.65
2023-04-18T21:42:39.202Z,12.48
2023-04-18T21:45:06.726Z,12.52
2023-04-18T21:47:34.147Z,12.68
2023-04-18T21:50:01.644Z,12.20
2023-04-18T21:52:28.875Z,11.85
2023-04-18T21:54:56.198Z,11.48
2023-04-18T21:57:23.470Z,10.75
2023-04-18T21:59:50.831Z,10.75
2023-04-18T22:02:18.130Z,10.90
2023-04-18T22:04:45.520Z,11.05
2023-04-18T22:07:13.472Z,11.55
2023-04-18T22:09:40.701Z,10.15
2023-04-18T22:12:08.325Z,11.85
2023-04-18T22:14:35.582Z,10.70
2023-04-18T22:17:05.848Z,11.60
2023-04-18T22:19:33.272Z,11.40
2023-04-18T22:22:00.552Z,10.43
2023-04-18T22:24:27.727Z,10.02
2023-04-18T22:26:54.978Z,10.88
2023-04-18T22:29:22.181Z,10.70
2023-04-18T22:31:49.444Z,10.27
2023-04-18T22:34:16.828Z,10.23
2023-04-18T22:36:45.546Z,10.80
2023-04-18T22:39:12.942Z,9.98
2023-04-18T22:41:40.381Z,10.00
2023-04-18T22:44:07.689Z,9.77
2023-04-18T22:46:34.919Z,10.65
2023-04-18T22:49:02.337Z,9.15
2023-04-18T22:51:29.725Z,10.20
2023-04-18T22:53:57.036Z,10.15
2023-04-18T22:56:24.237Z,9.77
2023-04-18T22:58:51.483Z,9.48
2023-04-18T23:01:18.833Z,11.10
2023-04-18T23:03:46.472Z,9.65
2023-04-18T23:06:13.769Z,10.30
2023-04-18T23:08:40.964Z,10.13
2023-04-18T23:11:08.203Z,8.93
2023-04-18T23:13:35.437Z,10.75
2023-04-18T23:16:02.861Z,9.20
2023-04-18T23:18:31.246Z,9.07
2023-04-18T23:21:00.189Z,9.23
2023-04-18T23:23:27.629Z,10.52
2023-04-18T23:25:55.853Z,10.15
2023-04-18T23:28:23.261Z,9.70
2023-04-18T23:30:50.671Z,10.15
2023-04-18T23:33:17.900Z,9.40
2023-04-18T23:35:45.140Z,9.20
2023-04-18T23:38:12.358Z,9.38
2023-04-18T23:40:39.594Z,9.20
2023-04-18T23:43:06.765Z,9.25
2023-04-18T23:45:34.002Z,9.75
2023-04-18T23:48:01.432Z,10.18
2023-04-18T23:50:28.717Z,11.07
2023-04-18T23:52:56.015Z,10.25
2023-04-18T23:55:23.321Z,10.10
2023-04-18T23:57:50.676Z,9.85
